Time;durP1;ratioP1;P1;durP2;ratioP2;P2;SDS_P1;SDS_P2;PMS_P1;PMS_P2;Temp;Humidity;BMP_temperature;BMP_pressure;BME280_temperature;BME280_humidity;BME280_pressure;Samples;Min_cycle;Max_cycle;Signal;HPM_P1;HPM_P2
2023/10/24 00:02:21;;;;;;;8.52;3.12;;;;;;;17.17;62.11;97638.03;4395063;32;20098;-79
2023/10/24 00:04:48;;;;;;;6.57;3.00;;;;;;;17.10;62.75;97643.81;4395339;32;20120;-79
2023/10/24 00:07:15;;;;;;;7.03;2.70;;;;;;;17.08;63.45;97643.94;4381372;32;20161;-79
2023/10/24 00:09:42;;;;;;;8.43;2.90;;;;;;;17.81;60.57;97632.28;4395480;32;20086;-79
2023/10/24 00:12:09;;;;;;;6.68;2.50;;;;;;;17.64;63.19;97633.53;4395341;32;20090;-79
2023/10/24 00:14:36;;;;;;;8.02;2.37;;;;;;;17.61;64.80;97639.84;4394926;32;20153;-79
2023/10/24 00:17:03;;;;;;;9.30;2.50;;;;;;;17.52;65.80;97632.72;4395353;32;20146;-79
2023/10/24 00:19:31;;;;;;;5.85;2.17;;;;;;;17.59;66.59;97626.09;4395255;32;20114;-79
2023/10/24 00:21:58;;;;;;;6.78;2.28;;;;;;;17.54;67.53;97620.38;4395010;32;20445;-80
2023/10/24 00:24:26;;;;;;;7.55;1.90;;;;;;;17.45;68.72;97615.91;4395086;32;20101;-79
2023/10/24 00:26:54;;;;;;;4.90;1.92;;;;;;;17.50;69.61;97621.59;4395176;32;20086;-79
2023/10/24 00:29:21;;;;;;;11.27;2.65;;;;;;;17.64;71.02;97617.91;4394891;32;20090;-80
2023/10/24 00:31:48;;;;;;;5.07;2.00;;;;;;;17.80;70.78;97617.56;4395360;32;20090;-79
2023/10/24 00:34:16;;;;;;;7.12;2.62;;;;;;;17.62;72.23;97614.56;4381665;32;20135;-79
2023/10/24 00:36:43;;;;;;;5.93;2.47;;;;;;;16.57;70.77;97604.34;4394894;32;20461;-79
2023/10/24 00:39:10;;;;;;;9.95;3.10;;;;;;;16.10;72.99;97601.66;4395163;32;20117;-79
2023/10/24 00:41:37;;;;;;;9.07;3.33;;;;;;;16.19;70.83;97610.59;4395247;32;20165;-79
2023/10/24 00:44:06;;;;;;;8.57;3.10;;;;;;;15.33;75.62;97613.19;4381241;32;20094;-79
2023/10/24 00:46:34;;;;;;;8.88;3.20;;;;;;;14.58;80.12;97612.19;4395085;32;20154;-79
2023/10/24 00:49:02;;;;;;;8.90;3.28;;;;;;;15.18;75.41;97622.00;4381529;32;20102;-79
2023/10/24 00:51:29;;;;;;;6.95;2.00;;;;;;;15.55;74.00;97631.56;4394759;32;20373;-79
2023/10/24 00:53:58;;;;;;;7.35;2.10;;;;;;;16.49;73.32;97626.59;4395058;32;20081;-79
2023/10/24 00:56:26;;;;;;;7.15;2.00;;;;;;;16.87;73.86;97630.75;4394731;32;20099;-79
2023/10/24 00:58:53;;;;;;;5.50;2.12;;;;;;;17.09;74.00;97631.75;4381475;32;20417;-79
2023/10/24 01:01:20;;;;;;;6.05;2.03;;;;;;;16.89;74.38;97626.25;4395143;32;20099;-79
2023/10/24 01:03:49;;;;;;;7.68;1.77;;;;;;;16.81;74.83;97639.03;4394697;32;20139;-79
2023/10/24 01:06:16;;;;;;;5.05;1.60;;;;;;;17.09;72.86;97629.13;4381366;32;20141;-79
2023/10/24 01:08:43;;;;;;;6.57;1.73;;;;;;;16.93;73.61;97625.09;4395034;32;20114;-79
2023/10/24 01:11:11;;;;;;;5.07;1.42;;;;;;;17.04;73.12;97619.91;4394652;32;20083;-79
2023/10/24 01:13:38;;;;;;;7.95;1.87;;;;;;;16.77;74.46;97625.38;4381302;32;20085;-79
2023/10/24 01:16:05;;;;;;;3.92;1.42;;;;;;;16.57;75.15;97623.41;4381260;32;20121;-79
2023/10/24 01:18:32;;;;;;;6.30;1.70;;;;;;;16.75;74.17;97613.44;4394637;32;20156;-80
2023/10/24 01:20:59;;;;;;;5.65;1.77;;;;;;;16.54;75.41;97605.41;4381408;32;20142;-79
2023/10/24 01:23:30;;;;;;;6.15;1.52;;;;;;;17.08;72.60;97611.84;4394735;32;20222;-79
2023/10/24 01:25:58;;;;;;;5.22;1.75;;;;;;;16.98;72.87;97607.31;4380887;32;20182;-79
2023/10/24 01:28:26;;;;;;;3.65;1.60;;;;;;;17.40;70.62;97606.75;4394922;32;20114;-79
2023/10/24 01:30:53;;;;;;;4.20;1.70;;;;;;;17.36;70.58;97606.19;4381289;32;20102;-79
2023/10/24 01:33:21;;;;;;;5.47;1.55;;;;;;;17.35;70.02;97591.50;4394498;32;20104;-80
2023/10/24 01:35:48;;;;;;;5.70;1.60;;;;;;;17.48;69.29;97602.63;4381128;32;20106;-79
2023/10/24 01:38:15;;;;;;;3.33;1.70;;;;;;;17.59;69.06;97592.19;4394268;32;20444;-79
2023/10/24 01:40:42;;;;;;;6.55;1.70;;;;;;;17.55;68.94;97587.34;4394508;32;20446;-79
2023/10/24 01:43:09;;;;;;;6.60;1.58;;;;;;;17.37;69.50;97580.94;4381257;32;20082;-79
2023/10/24 01:45:36;;;;;;;5.87;1.45;;;;;;;17.11;70.62;97573.31;4394313;32;20414;-79
2023/10/24 01:48:04;;;;;;;4.68;1.70;;;;;;;17.31;69.45;97574.41;4394659;32;20103;-79
2023/10/24 01:50:31;;;;;;;5.35;2.00;;;;;;;17.63;68.67;97585.75;4394780;32;20086;-79
2023/10/24 01:52:58;;;;;;;5.45;1.73;;;;;;;17.21;69.33;97584.72;4394279;32;20146;-80
2023/10/24 01:55:25;;;;;;;4.07;1.70;;;;;;;17.32;68.11;97582.09;4394447;32;20102;-79
2023/10/24 01:57:52;;;;;;;8.95;1.80;;;;;;;17.07;68.07;97587.56;4394594;32;20494;-80
2023/10/24 02:00:20;;;;;;;9.90;2.10;;;;;;;17.10;68.03;97591.69;4394297;32;20145;-80
2023/10/24 02:02:47;;;;;;;5.80;2.10;;;;;;;16.98;67.65;97585.63;4394559;32;20386;-79
2023/10/24 02:05:14;;;;;;;4.05;1.90;;;;;;;16.92;68.06;97573.91;4394386;32;20107;-79
2023/10/24 02:07:41;;;;;;;4.00;2.00;;;;;;;16.75;68.87;97579.56;4394121;32;20103;-80
2023/10/24 02:10:08;;;;;;;5.72;1.80;;;;;;;17.31;66.90;97563.97;4394514;32;20136;-80
2023/10/24 02:12:36;;;;;;;7.43;1.80;;;;;;;17.24;67.90;97586.28;4394408;32;20350;-80
2023/10/24 02:15:06;;;;;;;6.40;2.15;;;;;;;17.45;67.06;97587.22;4393898;32;20103;-79
2023/10/24 02:17:33;;;;;;;5.22;1.80;;;;;;;16.62;70.56;97584.84;4394440;32;20158;-79
2023/10/24 02:20:00;;;;;;;5.53;2.33;;;;;;;16.48;72.10;97588.47;4394416;32;20086;-79
2023/10/24 02:22:27;;;;;;;5.62;1.80;;;;;;;16.22;73.40;97584.31;4394031;32;20108;-80
2023/10/24 02:24:54;;;;;;;6.97;2.05;;;;;;;15.50;76.91;97588.59;4394497;32;20107;-80
2023/10/24 02:27:21;;;;;;;6.15;2.12;;;;;;;15.90;75.53;97587.47;4394229;32;20103;-79
2023/10/24 02:29:48;;;;;;;5.07;1.80;;;;;;;16.93;70.57;97593.81;4380350;32;20153;-79
2023/10/24 02:32:14;;;;;;;4.65;1.90;;;;;;;16.64;70.53;97589.94;4394272;32;20125;-79
2023/10/24 02:34:41;;;;;;;7.93;2.15;;;;;;;17.08;70.20;97585.78;4393989;32;20157;-80
2023/10/24 02:37:09;;;;;;;6.20;2.10;;;;;;;17.54;67.77;97590.88;4380515;32;20098;-79
2023/10/24 02:39:36;;;;;;;5.05;1.92;;;;;;;18.10;65.21;97586.41;4394163;32;20087;-79
2023/10/24 02:42:03;;;;;;;5.43;2.08;;;;;;;18.68;62.20;97589.50;4393803;32;20110;-80
2023/10/24 02:44:30;;;;;;;6.65;1.98;;;;;;;18.98;60.28;97587.91;4380409;32;20212;-79
2023/10/24 02:46:57;;;;;;;5.05;1.73;;;;;;;18.72;61.07;97577.87;4394020;32;20421;-79
2023/10/24 02:49:24;;;;;;;4.32;1.90;;;;;;;18.99;60.14;97569.50;4393700;32;20091;-80
2023/10/24 02:51:51;;;;;;;4.62;1.73;;;;;;;18.60;60.82;97560.53;4395951;32;20516;-79
2023/10/24 02:54:18;;;;;;;6.28;2.10;;;;;;;18.26;62.19;97551.22;4395873;32;20087;-79
2023/10/24 02:56:45;;;;;;;5.60;1.73;;;;;;;18.16;62.29;97546.75;4395615;32;20108;-80
2023/10/24 02:59:12;;;;;;;4.57;1.30;;;;;;;18.55;60.91;97559.28;4395850;32;20496;-79
2023/10/24 03:01:39;;;;;;;2.80;1.30;;;;;;;18.32;60.64;97546.34;4395797;32;20157;-79
2023/10/24 03:04:06;;;;;;;4.95;1.55;;;;;;;17.75;61.87;97538.81;4395439;32;20168;-79
2023/10/24 03:06:36;;;;;;;3.28;1.23;;;;;;;17.73;61.59;97546.75;4395717;32;20086;-79
2023/10/24 03:09:03;;;;;;;3.20;1.15;;;;;;;17.31;63.05;97540.50;4382195;32;20177;-79
2023/10/24 03:11:30;;;;;;;4.37;1.33;;;;;;;16.85;65.21;97535.41;4395412;32;20125;-79
2023/10/24 03:13:57;;;;;;;5.75;1.75;;;;;;;16.17;67.91;97535.22;4395797;32;20146;-79
2023/10/24 03:16:24;;;;;;;4.65;1.15;;;;;;;16.11;68.87;97540.88;4395637;32;20098;-78
2023/10/24 03:18:51;;;;;;;5.60;1.40;;;;;;;16.19;68.84;97538.53;4395491;32;20105;-79
2023/10/24 03:21:19;;;;;;;2.30;1.33;;;;;;;16.03;69.54;97547.56;4395817;32;20149;-79
2023/10/24 03:23:46;;;;;;;6.50;1.80;;;;;;;16.02;69.71;97538.09;4395127;32;20517;-79
2023/10/24 03:26:13;;;;;;;4.55;1.73;;;;;;;15.90;70.28;97535.44;4395553;32;20129;-79
2023/10/24 03:28:40;;;;;;;6.70;1.33;;;;;;;16.10;69.60;97535.78;4395668;32;20082;-79
2023/10/24 03:31:08;;;;;;;4.75;1.33;;;;;;;16.40;68.22;97556.94;4395331;32;20108;-79
2023/10/24 03:33:35;;;;;;;4.82;1.30;;;;;;;16.40;68.04;97556.13;4395676;32;20117;-79
2023/10/24 03:36:02;;;;;;;4.18;1.73;;;;;;;16.76;66.35;97560.38;4395498;32;20174;-79
2023/10/24 03:38:30;;;;;;;3.08;1.40;;;;;;;16.57;66.76;97558.28;4381705;32;20102;-79
2023/10/24 03:40:58;;;;;;;5.18;1.50;;;;;;;16.36;67.70;97555.50;4395618;32;20082;-78
2023/10/24 03:43:24;;;;;;;3.75;1.20;;;;;;;16.39;67.61;97544.88;4395589;32;20094;-79
2023/10/24 03:45:52;;;;;;;4.12;1.60;;;;;;;16.13;68.67;97553.75;4395080;32;20141;-79
2023/10/24 03:48:18;;;;;;;3.05;1.20;;;;;;;16.08;69.19;97550.69;4395482;32;20521;-79
2023/10/24 03:50:45;;;;;;;3.12;1.25;;;;;;;16.45;67.81;97552.22;4395503;32;20107;-79
2023/10/24 03:53:12;;;;;;;3.50;1.12;;;;;;;16.56;67.25;97548.81;4395201;32;20477;-79
2023/10/24 03:55:39;;;;;;;6.30;1.33;;;;;;;16.11;69.19;97548.66;4395361;32;20159;-79
2023/10/24 03:58:06;;;;;;;5.28;1.50;;;;;;;16.24;68.86;97540.78;4395460;32;20409;-79
2023/10/24 04:00:33;;;;;;;4.53;1.40;;;;;;;16.02;69.41;97543.31;4394848;32;20086;-79
2023/10/24 04:03:00;;;;;;;5.07;1.37;;;;;;;16.10;68.94;97549.63;4395448;32;20114;-81
2023/10/24 04:05:31;;;;;;;8.60;1.52;;;;;;;15.77;70.21;97550.28;4395323;32;20098;-81
2023/10/24 04:07:58;;;;;;;4.68;1.55;;;;;;;15.61;71.25;97553.13;4394966;32;20110;-81
2023/10/24 04:10:25;;;;;;;4.45;1.40;;;;;;;15.69;71.36;97544.78;4381896;32;20089;-81
2023/10/24 04:12:52;;;;;;;5.07;1.60;;;;;;;16.13;69.05;97540.75;4395120;32;20102;-82
2023/10/24 04:15:19;;;;;;;5.05;1.35;;;;;;;15.95;69.80;97545.53;4395185;32;20106;-81
2023/10/24 04:17:45;;;;;;;7.78;1.75;;;;;;;16.14;68.31;97538.03;4395334;32;20099;-81
2023/10/24 04:20:13;;;;;;;6.07;1.60;;;;;;;16.42;67.05;97538.59;4395050;32;20456;-82
2023/10/24 04:22:43;;;;;;;5.20;1.55;;;;;;;16.33;67.39;97531.47;4395043;32;20130;-81
2023/10/24 04:25:10;;;;;;;4.03;1.35;;;;;;;16.43;65.92;97525.47;4395535;32;20102;-81
2023/10/24 04:27:37;;;;;;;5.03;1.33;;;;;;;16.92;64.22;97527.00;4394800;32;20129;-82
2023/10/24 04:30:06;;;;;;;4.72;1.58;;;;;;;17.01;63.43;97526.31;4395342;32;20472;-81
2023/10/24 04:32:33;;;;;;;7.03;1.73;;;;;;;16.22;65.71;97528.84;4395474;32;20238;-81
2023/10/24 04:35:00;;;;;;;3.55;1.58;;;;;;;16.22;65.40;97532.28;4394782;32;20110;-81
2023/10/24 04:37:27;;;;;;;3.92;1.58;;;;;;;17.13;62.52;97528.91;4395184;32;20094;-81
2023/10/24 04:39:54;;;;;;;4.00;1.50;;;;;;;16.57;62.60;97531.41;4395192;32;20109;-82
2023/10/24 04:42:21;;;;;;;4.68;1.50;;;;;;;16.77;62.34;97515.97;4394837;32;20167;-82
2023/10/24 04:44:48;;;;;;;3.67;1.37;;;;;;;16.97;61.52;97524.87;4395149;32;20192;-82
2023/10/24 04:47:15;;;;;;;4.37;1.42;;;;;;;16.92;60.96;97532.22;4395045;32;20101;-81
2023/10/24 04:49:42;;;;;;;4.68;2.20;;;;;;;17.21;60.44;97535.16;4394849;32;20145;-82
2023/10/24 04:52:09;;;;;;;7.60;1.77;;;;;;;17.46;59.27;97522.84;4395064;32;20160;-82
2023/10/24 04:54:36;;;;;;;3.12;1.35;;;;;;;17.62;58.12;97518.88;4395215;32;20555;-82
2023/10/24 04:57:03;;;;;;;5.10;1.80;;;;;;;18.88;54.90;97524.31;4394528;32;20110;-82
2023/10/24 04:59:30;;;;;;;4.90;1.27;;;;;;;18.67;55.54;97521.72;4394942;32;20094;-81
2023/10/24 05:01:57;;;;;;;4.65;1.52;;;;;;;18.02;57.13;97510.50;4394663;32;20163;-82
2023/10/24 05:04:24;;;;;;;7.80;1.70;;;;;;;17.95;57.75;97527.59;4395099;32;20095;-81
2023/10/24 05:06:52;;;;;;;3.55;1.50;;;;;;;17.07;59.47;97525.00;4381243;32;20109;-81
2023/10/24 05:09:19;;;;;;;5.25;1.50;;;;;;;18.19;57.28;97523.00;4394633;32;20117;-82
2023/10/24 05:11:45;;;;;;;6.95;1.42;;;;;;;17.74;59.23;97519.72;4394627;32;20145;-81
2023/10/24 05:14:13;;;;;;;9.40;1.60;;;;;;;17.46;60.81;97522.84;4394398;32;20430;-81
2023/10/24 05:16:42;;;;;;;4.85;1.37;;;;;;;17.44;61.05;97520.38;4394653;32;20438;-82
2023/10/24 05:19:09;;;;;;;4.50;1.40;;;;;;;17.58;60.55;97520.09;4394850;32;20074;-81
2023/10/24 05:21:36;;;;;;;3.58;1.42;;;;;;;17.18;62.01;97511.13;4394865;32;20162;-81
2023/10/24 05:24:03;;;;;;;6.00;2.50;;;;;;;17.18;61.99;97501.53;4380678;32;20166;-82
2023/10/24 05:26:30;;;;;;;3.55;1.40;;;;;;;16.90;63.29;97510.66;4394854;32;20360;-81
2023/10/24 05:28:57;;;;;;;4.93;1.33;;;;;;;15.54;67.64;97506.84;4394724;32;20138;-81
2023/10/24 05:31:24;;;;;;;2.58;1.35;;;;;;;15.67;67.07;97512.03;4394406;32;20152;-82
2023/10/24 05:33:52;;;;;;;4.68;1.62;;;;;;;13.88;75.47;97506.84;4394914;32;20102;-81
2023/10/24 05:36:18;;;;;;;4.37;1.50;;;;;;;15.33;69.43;97486.66;4394620;32;20104;-81
2023/10/24 05:38:45;;;;;;;2.42;1.35;;;;;;;14.45;75.55;97501.37;4394439;32;20125;-82
2023/10/24 05:41:12;;;;;;;5.90;1.67;;;;;;;15.78;67.51;97504.28;4381178;32;20130;-81
2023/10/24 05:43:39;;;;;;;6.95;1.83;;;;;;;15.56;69.69;97498.00;4394904;32;20102;-82
2023/10/24 05:46:06;;;;;;;5.50;1.52;;;;;;;16.08;68.21;97499.47;4394233;32;20094;-81
2023/10/24 05:48:35;;;;;;;2.60;1.30;;;;;;;17.18;63.35;97504.12;4394466;32;20157;-81
2023/10/24 05:51:02;;;;;;;4.75;1.35;;;;;;;17.48;62.35;97518.34;4394309;32;20145;-82
2023/10/24 05:53:29;;;;;;;4.05;1.35;;;;;;;18.05;60.15;97533.72;4394605;32;20090;-82
2023/10/24 05:55:56;;;;;;;4.05;1.30;;;;;;;17.73;61.36;97528.50;4394444;32;20185;-82
2023/10/24 05:58:23;;;;;;;6.45;1.62;;;;;;;17.75;61.26;97528.38;4394190;32;20078;-80
2023/10/24 06:00:51;;;;;;;5.10;1.50;;;;;;;17.71;61.81;97534.78;4394436;32;20157;-83
2023/10/24 06:03:19;;;;;;;3.60;1.37;;;;;;;16.48;66.45;97530.31;4380988;32;20386;-82
2023/10/24 06:05:49;;;;;;;6.03;1.50;;;;;;;16.35;67.10;97525.22;4394009;32;20152;-83
2023/10/24 06:08:16;;;;;;;4.18;1.37;;;;;;;17.14;64.29;97533.19;4427871;27;20149;-82
2023/10/24 06:10:43;;;;;;;6.57;1.60;;;;;;;18.42;60.07;97534.19;4409512;32;20112;-83
2023/10/24 06:13:17;;;;;;;10.82;1.75;;;;;;;18.52;59.96;97536.03;4409180;32;20540;-83
2023/10/24 06:15:44;;;;;;;8.32;1.90;;;;;;;17.44;63.51;97524.72;4408900;32;20105;-83
2023/10/24 06:18:11;;;;;;;5.50;2.05;;;;;;;15.40;72.42;97514.78;4408995;32;20459;-82
2023/10/24 06:20:38;;;;;;;5.22;1.75;;;;;;;15.06;75.81;97517.16;4408967;32;20098;-82
2023/10/24 06:23:07;;;;;;;6.00;1.98;;;;;;;15.79;72.09;97518.97;4409190;32;20112;-82
2023/10/24 06:25:38;;;;;;;9.50;1.80;;;;;;;16.17;70.29;97529.19;4409100;32;20472;-83
2023/10/24 06:28:06;;;;;;;4.78;1.83;;;;;;;16.44;69.84;97523.69;4408540;32;20081;-83
2023/10/24 06:30:34;;;;;;;8.55;1.90;;;;;;;16.70;69.31;97521.78;4409327;32;20103;-83
2023/10/24 06:33:02;;;;;;;5.00;1.48;;;;;;;17.98;64.12;97537.81;4395447;32;20150;-83
2023/10/24 06:35:29;;;;;;;6.50;1.77;;;;;;;18.44;61.88;97529.66;4394834;32;20384;-82
2023/10/24 06:40:31;;;;;;;6.32;1.62;;;;;;;16.93;68.12;97514.81;4448084;27;20145;-83
2023/10/24 06:42:58;;;;;;;4.28;1.60;;;;;;;17.60;65.98;97512.12;4409287;32;20098;-83
2023/10/24 06:45:25;;;;;;;4.87;1.40;;;;;;;18.29;62.75;97514.41;4395304;32;20094;-81
2023/10/24 06:47:55;;;;;;;5.50;1.60;;;;;;;18.75;61.26;97520.12;4408763;32;20136;-81
2023/10/24 06:50:22;;;;;;;5.28;1.90;;;;;;;19.62;58.63;97512.62;4409002;32;20109;-82
2023/10/24 06:52:49;;;;;;;4.72;1.60;;;;;;;19.16;58.63;97505.31;4412409;32;20062;-81
2023/10/24 06:55:22;;;;;;;5.53;1.52;;;;;;;19.96;55.88;97504.38;4413233;32;20071;-79
2023/10/24 06:57:52;;;;;;;4.60;1.60;;;;;;;20.06;55.96;97520.09;4519559;27;20037;-79
2023/10/24 07:09:29;;;;;;;4.18;1.60;;;;;;;20.51;54.46;97500.25;4462782;27;20087;-79
2023/10/24 07:11:56;;;;;;;7.20;1.90;;;;;;;20.39;54.93;97503.97;4440424;32;20523;-78
2023/10/24 07:14:23;;;;;;;9.82;3.33;;;;;;;20.39;55.85;97505.75;4441000;32;20090;-79
2023/10/24 07:16:51;;;;;;;4.60;1.40;;;;;;;21.16;54.40;97517.84;4440641;32;20112;-79
2023/10/24 07:19:19;;;;;;;3.80;1.48;;;;;;;21.17;53.17;97515.13;4440878;32;20077;-79
2023/10/24 07:21:46;;;;;;;5.45;1.80;;;;;;;20.48;56.07;97500.53;4442450;32;20097;-79
2023/10/24 07:24:14;;;;;;;4.90;1.65;;;;;;;20.11;57.31;97502.22;4427773;32;20081;-77
2023/10/24 07:26:41;;;;;;;6.10;1.55;;;;;;;20.48;55.92;97516.25;4441465;32;20072;-77
2023/10/24 07:29:08;;;;;;;5.22;1.70;;;;;;;20.75;56.07;97512.09;4442369;32;20061;-76
2023/10/24 07:31:35;;;;;;;7.53;1.62;;;;;;;20.25;58.06;97507.00;4425211;32;20120;-75
2023/10/24 07:34:02;;;;;;;7.40;1.90;;;;;;;21.60;54.51;97506.63;4439041;32;20116;-76
2023/10/24 07:36:31;;;;;;;7.10;2.40;;;;;;;21.69;54.13;97506.69;4440152;32;20164;-76
2023/10/24 07:39:00;;;;;;;5.00;1.73;;;;;;;22.38;52.34;97503.44;4427574;32;20100;-77
2023/10/24 07:41:27;;;;;;;7.03;1.60;;;;;;;22.34;51.92;97508.19;4427620;32;20148;-77
2023/10/24 07:43:54;;;;;;;2.75;1.30;;;;;;;22.68;50.80;97517.97;4441086;32;20192;-77
2023/10/24 07:46:23;;;;;;;5.45;1.30;;;;;;;23.00;49.21;97515.56;4440987;32;20153;-77
2023/10/24 07:48:52;;;;;;;3.42;1.20;;;;;;;22.50;50.21;97505.66;4540714;27;20558;-77
2023/10/24 07:51:19;;;;;;;4.37;1.33;;;;;;;21.37;53.41;97518.47;4396666;32;20177;-76
2023/10/24 07:53:46;;;;;;;3.35;1.58;;;;;;;20.47;55.66;97498.88;4410589;32;20102;-77
2023/10/24 07:56:16;;;;;;;6.62;1.60;;;;;;;20.53;56.57;97494.88;4396800;32;20094;-76
2023/10/24 07:58:42;;;;;;;3.15;1.20;;;;;;;20.19;57.48;97500.53;4410113;32;20142;-76
2023/10/24 08:01:10;;;;;;;4.87;1.20;;;;;;;20.24;58.62;97500.13;4410364;32;20158;-76
2023/10/24 08:03:37;;;;;;;7.82;1.75;;;;;;;20.44;57.78;97499.19;4396933;32;20120;-76
2023/10/24 08:06:04;;;;;;;4.47;1.50;;;;;;;20.60;56.89;97490.72;4410090;32;20098;-76
2023/10/24 08:08:31;;;;;;;4.12;1.30;;;;;;;20.27;58.40;97491.97;4410272;32;20102;-76
2023/10/24 08:10:58;;;;;;;3.80;1.37;;;;;;;20.65;57.42;97496.38;4410396;32;20108;-76
2023/10/24 08:13:25;;;;;;;6.20;1.52;;;;;;;20.56;57.49;97494.59;4410004;32;20081;-78
2023/10/24 08:15:53;;;;;;;2.95;1.02;;;;;;;20.25;59.22;97486.06;4410295;32;20144;-77
2023/10/24 08:18:19;;;;;;;4.35;1.35;;;;;;;20.86;57.21;97480.44;4410158;32;20086;-78
2023/10/24 08:20:46;;;;;;;9.73;2.08;;;;;;;20.99;57.54;97478.31;4410420;32;20086;-77
2023/10/24 08:23:13;;;;;;;6.28;1.80;;;;;;;20.90;58.02;97475.72;4410417;32;20149;-78
2023/10/24 08:25:40;;;;;;;7.57;1.50;;;;;;;21.02;57.28;97471.94;4409919;32;20090;-78
2023/10/24 08:28:08;;;;;;;5.20;1.67;;;;;;;20.96;56.80;97478.63;4410182;32;20090;-78
2023/10/24 08:30:34;;;;;;;7.40;1.60;;;;;;;20.90;56.51;97452.97;4410342;32;20142;-78
2023/10/24 08:33:02;;;;;;;4.00;1.50;;;;;;;20.85;57.31;97457.00;4410021;32;20746;-78
2023/10/24 08:35:29;;;;;;;7.22;1.58;;;;;;;21.26;56.33;97458.31;4410173;32;20105;-78
2023/10/24 08:37:56;;;;;;;13.10;1.70;;;;;;;21.48;55.25;97454.47;4410251;32;20116;-78
2023/10/24 08:40:23;;;;;;;5.28;1.70;;;;;;;21.58;54.93;97453.44;4409851;32;20094;-78
2023/10/24 08:42:50;;;;;;;8.75;1.80;;;;;;;21.75;54.80;97459.69;4410250;32;20408;-78
2023/10/24 08:45:18;;;;;;;4.95;1.27;;;;;;;22.00;54.15;97468.59;4410195;32;20090;-78
2023/10/24 08:47:47;;;;;;;8.88;1.75;;;;;;;21.89;54.36;97455.69;4394944;32;20074;-78
2023/10/24 08:50:15;;;;;;;5.78;2.03;;;;;;;22.22;53.65;97462.06;4410020;32;20110;-78
2023/10/24 08:52:44;;;;;;;9.25;1.67;;;;;;;22.07;54.02;97464.44;4410190;32;20118;-78
2023/10/24 08:55:12;;;;;;;5.28;1.60;;;;;;;22.82;51.37;97464.78;4396133;32;20376;-78
2023/10/24 08:57:40;;;;;;;8.88;1.90;;;;;;;22.78;52.59;97452.94;4410165;32;20078;-77
2023/10/24 09:00:13;;;;;;;5.93;1.40;;;;;;;22.84;51.85;97452.31;4410654;32;20094;-78
2023/10/24 09:02:42;;;;;;;3.50;1.27;;;;;;;23.20;50.50;97457.44;4384224;32;20106;-77
2023/10/24 09:05:10;;;;;;;5.45;1.45;;;;;;;23.56;50.68;97460.66;4396270;32;20159;-77
2023/10/24 09:07:37;;;;;;;8.60;1.65;;;;;;;23.92;49.71;97464.69;4409864;32;20104;-77
2023/10/24 09:10:05;;;;;;;7.32;1.50;;;;;;;23.85;49.04;97462.87;4409653;32;20106;-77
2023/10/24 09:12:34;;;;;;;4.70;1.60;;;;;;;23.58;49.05;97467.44;4396413;32;20125;-77
2023/10/24 09:15:01;;;;;;;5.82;1.60;;;;;;;22.60;51.63;97439.84;4409596;32;20098;-77
2023/10/24 09:17:31;;;;;;;7.53;1.85;;;;;;;22.71;51.81;97457.16;4410084;32;20101;-77
2023/10/24 09:19:58;;;;;;;9.02;2.00;;;;;;;22.97;51.59;97452.75;4409896;32;20434;-77
2023/10/24 09:22:27;;;;;;;6.07;1.40;;;;;;;22.98;51.83;97454.38;4409598;32;20115;-77
2023/10/24 09:24:56;;;;;;;8.85;2.78;;;;;;;22.94;51.65;97444.31;4409735;32;20148;-77
2023/10/24 09:27:24;;;;;;;6.65;1.60;;;;;;;22.72;52.19;97438.59;4384238;32;20427;-76
2023/10/24 09:29:51;;;;;;;5.07;1.62;;;;;;;23.24;51.53;97430.63;4409503;32;20116;-77
2023/10/24 09:32:20;;;;;;;7.57;1.60;;;;;;;22.83;52.37;97437.50;4409936;32;20086;-77
2023/10/24 09:34:47;;;;;;;8.85;1.60;;;;;;;22.00;53.56;97400.31;4396105;32;20596;-77
2023/10/24 09:37:15;;;;;;;5.12;1.70;;;;;;;22.46;53.64;97436.00;4409597;32;20571;-77
2023/10/24 09:39:57;;;;;;;8.52;2.00;;;;;;;22.46;53.36;97425.47;4395686;32;20106;-77
2023/10/24 09:42:28;;;;;;;6.93;1.60;;;;;;;22.42;53.27;97416.22;4396305;32;20122;-78
2023/10/24 09:45:02;;;;;;;10.48;1.92;;;;;;;22.66;53.13;97420.81;4396666;32;20107;-77
2023/10/24 09:47:31;;;;;;;7.65;2.03;;;;;;;22.78;53.28;97418.75;4409800;32;20094;-76
2023/10/24 09:49:59;;;;;;;7.53;1.80;;;;;;;23.02;52.67;97410.16;4408933;32;20428;-77
2023/10/24 09:52:27;;;;;;;7.90;1.70;;;;;;;22.56;52.39;97395.63;4409792;32;20114;-76
2023/10/24 09:54:55;;;;;;;6.00;1.87;;;;;;;22.62;53.21;97400.25;4409545;32;20170;-76
2023/10/24 09:57:23;;;;;;;7.75;2.00;;;;;;;22.25;53.83;97413.66;4396089;32;20146;-76
2023/10/24 09:59:56;;;;;;;8.13;1.80;;;;;;;22.11;54.66;97426.34;4395444;32;20425;-76
2023/10/24 10:02:24;;;;;;;8.85;1.92;;;;;;;22.32;53.75;97410.25;4409674;32;20098;-76
2023/10/24 10:04:52;;;;;;;7.82;2.00;;;;;;;22.94;52.53;97415.38;4409248;32;20148;-76
2023/10/24 10:07:23;;;;;;;7.43;2.17;;;;;;;22.37;53.52;97400.13;4396144;32;20420;-77
2023/10/24 10:09:53;;;;;;;11.57;2.00;;;;;;;22.26;54.03;97403.00;4396303;32;20106;-77
2023/10/24 10:12:21;;;;;;;5.22;1.80;;;;;;;22.53;53.62;97389.69;4409404;32;20090;-77
2023/10/24 10:15:03;;;;;;;6.10;1.50;;;;;;;22.29;54.73;97400.06;4395812;32;20090;-78
2023/10/24 10:17:54;;;;;;;9.32;1.83;;;;;;;21.91;55.80;97403.88;4409512;32;20126;-77
2023/10/24 10:20:29;;;;;;;4.03;1.37;;;;;;;21.87;55.58;97392.81;4409584;32;20094;-77
2023/10/24 10:23:09;;;;;;;4.70;1.60;;;;;;;22.46;54.88;97387.84;4409661;32;20114;-77
2023/10/24 10:25:56;;;;;;;8.38;1.75;;;;;;;23.42;52.72;97380.50;4395483;32;20369;-78
2023/10/24 10:28:54;;;;;;;9.95;1.83;;;;;;;22.88;52.65;97379.19;4408557;32;20086;-78
2023/10/24 10:31:43;;;;;;;8.75;1.60;;;;;;;22.96;52.78;97376.59;4395793;32;20125;-77
2023/10/24 10:34:36;;;;;;;;;;;;;;;23.33;52.48;97392.00;4409635;32;20102;-77
2023/10/24 10:37:04;;;;;;;8.52;2.12;;;;;;;23.60;51.31;97385.63;4409267;32;19970;-77
2023/10/24 10:39:31;;;;;;;10.68;1.55;;;;;;;24.03;51.29;97394.22;4418351;27;20482;-78
2023/10/24 10:41:58;;;;;;;8.20;1.92;;;;;;;24.14;50.22;97400.00;4409207;32;20471;-77
2023/10/24 10:44:42;;;;;;;9.82;1.80;;;;;;;23.79;51.20;97405.56;4408912;32;20102;-78
2023/10/24 10:47:13;;;;;;;13.93;2.55;;;;;;;23.76;50.80;97405.91;4408912;32;20104;-77
2023/10/24 10:49:46;;;;;;;9.32;1.80;;;;;;;23.30;51.66;97400.22;4395279;32;20074;-77
2023/10/24 10:52:52;;;;;;;10.82;1.75;;;;;;;23.34;51.82;97396.28;4395642;32;20124;-77
2023/10/24 10:55:38;;;;;;;8.10;1.50;;;;;;;23.32;52.18;97395.63;4395089;32;20102;-77
2023/10/24 10:58:25;;;;;;;6.97;1.48;;;;;;;23.77;51.56;97400.47;4409024;32;20082;-77
2023/10/24 11:01:03;;;;;;;12.85;2.37;;;;;;;24.26;50.19;97381.19;4408833;32;20100;-77
2023/10/24 11:03:42;;;;;;;10.35;2.35;;;;;;;23.93;50.95;97384.69;4408924;32;20498;-77
2023/10/24 11:06:17;;;;;;;6.20;1.80;;;;;;;23.87;50.45;97381.88;4408717;32;20563;-77
2023/10/24 11:08:50;;;;;;;8.75;1.90;;;;;;;23.61;51.95;97388.13;4472709;27;20102;-77
2023/10/24 11:11:19;;;;;;;5.93;1.67;;;;;;;23.72;51.58;97378.25;4440489;32;20104;-77
2023/10/24 11:13:48;;;;;;;10.73;2.33;;;;;;;23.83;50.64;97365.59;4427457;32;20502;-77
2023/10/24 11:16:15;;;;;;;10.50;2.05;;;;;;;23.25;51.94;97377.00;4427609;32;20517;-76
2023/10/24 11:19:02;;;;;;;11.70;1.70;;;;;;;22.87;52.94;97372.28;4429950;32;20085;-77
2023/10/24 11:21:29;;;;;;;12.65;2.12;;;;;;;23.09;52.25;97388.31;4441488;32;20085;-77
2023/10/24 11:23:58;;;;;;;8.90;1.85;;;;;;;22.98;53.06;97396.50;4441416;32;20169;-76
2023/10/24 11:26:26;;;;;;;11.77;2.05;;;;;;;22.70;53.16;97392.41;4441207;32;20153;-77
2023/10/24 11:28:54;;;;;;;9.73;1.87;;;;;;;22.45;53.57;97388.84;4440969;32;20496;-77
2023/10/24 11:31:23;;;;;;;14.13;2.33;;;;;;;23.02;53.22;97397.00;4441356;32;20428;-77
2023/10/24 11:33:50;;;;;;;8.70;1.77;;;;;;;23.36;52.51;97403.00;4414821;32;20105;-77
2023/10/24 11:36:17;;;;;;;11.50;1.92;;;;;;;23.87;51.21;97401.13;4441120;32;20142;-77
2023/10/24 11:38:45;;;;;;;11.48;1.95;;;;;;;23.27;51.70;97388.19;4441407;32;20111;-77
2023/10/24 11:41:12;;;;;;;9.00;1.75;;;;;;;22.76;53.02;97395.25;4427538;32;20420;-77
2023/10/24 11:43:40;;;;;;;13.88;2.58;;;;;;;22.54;54.36;97387.88;4441222;32;20097;-77
2023/10/24 11:46:10;;;;;;;12.77;2.47;;;;;;;22.72;53.42;97374.66;4440964;32;20459;-77
2023/10/24 11:51:17;;;;;;;7.55;1.98;;;;;;;22.05;55.52;97366.53;4440787;32;20086;-77
2023/10/24 11:53:44;;;;;;;7.00;1.90;;;;;;;22.85;53.87;97355.81;4441178;32;20113;-77
2023/10/24 11:56:11;;;;;;;12.02;1.85;;;;;;;22.61;54.30;97336.31;4440792;32;20657;-77